createdAt,value
2017-09-29T00:01:58.647Z,30.15
2017-09-29T00:04:26.167Z,31.67
2017-09-29T00:06:53.668Z,32.38
2017-09-29T00:09:21.961Z,34.88
2017-09-29T00:11:49.477Z,35.55
2017-09-29T00:14:17.187Z,33.80
2017-09-29T00:16:44.696Z,34.78
2017-09-29T00:19:12.233Z,32.42
2017-09-29T00:21:39.766Z,32.75
2017-09-29T00:24:07.297Z,32.88
2017-09-29T00:26:35.568Z,32.38
2017-09-29T00:29:03.855Z,45.05
2017-09-29T00:31:32.138Z,30.45
2017-09-29T00:34:00.429Z,30.48
2017-09-29T00:36:27.944Z,31.45
2017-09-29T00:38:56.255Z,31.67
2017-09-29T00:41:23.765Z,30.55
2017-09-29T00:43:51.287Z,30.33
2017-09-29T00:46:18.792Z,30.73
2017-09-29T00:48:46.319Z,33.40
2017-09-29T00:51:13.830Z,31.23
2017-09-29T00:53:42.129Z,33.88
2017-09-29T00:56:09.646Z,34.42
2017-09-29T00:58:37.178Z,31.65
2017-09-29T01:01:04.692Z,31.12
2017-09-29T01:03:32.962Z,29.83
2017-09-29T01:06:01.240Z,33.22
2017-09-29T01:08:29.561Z,32.35
2017-09-29T01:10:57.087Z,32.28
2017-09-29T01:13:24.604Z,32.05
2017-09-29T01:15:52.119Z,30.35
2017-09-29T01:18:19.632Z,31.77
2017-09-29T01:20:47.154Z,30.33
2017-09-29T01:23:14.686Z,30.10
2017-09-29T01:25:42.961Z,29.65
2017-09-29T01:28:11.237Z,33.63
2017-09-29T01:30:39.519Z,35.63
2017-09-29T01:33:07.788Z,31.52
2017-09-29T01:35:36.077Z,31.45
2017-09-29T01:38:03.671Z,32.65
2017-09-29T01:40:31.201Z,33.25
2017-09-29T01:42:58.709Z,32.80
2017-09-29T01:45:26.247Z,30.83
2017-09-29T01:47:53.750Z,32.70
2017-09-29T01:50:21.254Z,31.73
2017-09-29T01:52:48.783Z,30.37
2017-09-29T01:55:16.296Z,32.70
2017-09-29T01:57:43.844Z,30.60
2017-09-29T02:00:11.351Z,30.77
2017-09-29T02:02:38.866Z,30.00
2017-09-29T02:05:06.391Z,32.05
2017-09-29T02:07:33.903Z,30.80
2017-09-29T02:16:45.777Z,29.30
2017-09-29T02:19:14.124Z,30.85
2017-09-29T02:21:41.669Z,30.90
2017-09-29T02:24:09.225Z,33.20
2017-09-29T02:26:36.724Z,31.12
2017-09-29T02:29:05.003Z,30.02
2017-09-29T02:31:32.548Z,28.55
2017-09-29T02:34:00.087Z,30.77
2017-09-29T02:36:27.602Z,30.50
2017-09-29T02:38:55.113Z,29.12
2017-09-29T02:41:22.619Z,31.27
2017-09-29T02:43:50.222Z,34.10
2017-09-29T02:46:17.753Z,30.67
2017-09-29T02:48:45.270Z,31.60
2017-09-29T02:51:12.796Z,27.10
2017-09-29T02:53:40.324Z,30.00
2017-09-29T02:56:07.873Z,32.95
2017-09-29T02:58:41.747Z,30.02
2017-09-29T03:01:15.528Z,31.48
2017-09-29T03:03:47.621Z,31.75
2017-09-29T03:06:15.169Z,29.70
2017-09-29T03:08:42.689Z,29.92
2017-09-29T03:11:10.196Z,30.48
2017-09-29T03:13:37.705Z,31.58
2017-09-29T03:16:05.215Z,30.75
2017-09-29T03:18:32.752Z,29.02
2017-09-29T03:21:00.269Z,31.98
2017-09-29T03:23:28.544Z,31.73
2017-09-29T03:25:56.089Z,30.73
2017-09-29T03:28:24.375Z,30.27
2017-09-29T03:30:52.657Z,36.72
2017-09-29T03:33:20.931Z,29.23
2017-09-29T03:35:49.207Z,30.27
2017-09-29T03:38:17.485Z,28.92
2017-09-29T03:40:45.764Z,33.00
2017-09-29T03:43:14.062Z,30.42
2017-09-29T03:45:41.576Z,30.77
2017-09-29T03:48:09.083Z,27.52
2017-09-29T03:50:39.850Z,31.20
2017-09-29T03:53:14.179Z,30.88
2017-09-29T03:55:44.123Z,30.20
2017-09-29T03:58:14.911Z,31.92
2017-09-29T04:00:42.438Z,29.60
2017-09-29T04:03:09.979Z,31.20
2017-09-29T04:05:38.293Z,31.25
2017-09-29T04:08:05.864Z,29.58
2017-09-29T04:10:33.385Z,27.62
2017-09-29T04:13:00.900Z,30.42
2017-09-29T04:15:28.426Z,30.77
2017-09-29T04:17:55.996Z,28.67
2017-09-29T04:20:23.509Z,30.20
2017-09-29T04:22:51.792Z,29.12
2017-09-29T04:25:20.069Z,29.77
2017-09-29T04:27:48.769Z,31.08
2017-09-29T04:30:17.707Z,30.05
2017-09-29T04:32:45.329Z,30.15
2017-09-29T04:35:12.873Z,28.77
2017-09-29T04:37:40.393Z,28.70
2017-09-29T04:40:07.925Z,28.70
2017-09-29T04:42:35.441Z,30.80
2017-09-29T04:45:02.972Z,28.45
2017-09-29T04:47:30.477Z,27.58
2017-09-29T04:49:58.751Z,28.58
2017-09-29T04:52:27.054Z,31.02
2017-09-29T04:54:54.573Z,28.98
2017-09-29T04:57:22.114Z,34.83
2017-09-29T04:59:49.636Z,32.20
2017-09-29T05:02:17.185Z,32.47
2017-09-29T05:04:44.708Z,30.55
2017-09-29T05:07:12.257Z,29.17
2017-09-29T05:09:39.815Z,29.05
2017-09-29T05:12:07.347Z,30.52
2017-09-29T05:14:34.854Z,31.48
2017-09-29T05:17:02.563Z,31.08
2017-09-29T05:19:30.148Z,38.97
2017-09-29T05:21:57.686Z,28.62
2017-09-29T05:24:25.198Z,34.88
2017-09-29T05:26:53.486Z,33.67
2017-09-29T05:29:21.845Z,37.00
2017-09-29T05:31:49.396Z,37.38
2017-09-29T05:34:16.905Z,28.17
2017-09-29T05:36:44.442Z,34.20
2017-09-29T05:39:11.977Z,28.92
2017-09-29T05:41:39.509Z,28.23
2017-09-29T05:44:07.153Z,28.38
2017-09-29T05:46:34.761Z,30.60
2017-09-29T05:49:02.269Z,30.50
2017-09-29T05:51:29.782Z,30.08
2017-09-29T05:53:57.472Z,29.45
2017-09-29T05:56:25.023Z,27.15
2017-09-29T05:58:53.312Z,28.70
2017-09-29T06:01:20.855Z,31.58
2017-09-29T06:03:48.385Z,28.30
2017-09-29T06:06:15.896Z,31.40
2017-09-29T06:08:43.452Z,29.85
2017-09-29T06:11:10.971Z,29.27
2017-09-29T06:13:38.591Z,26.67
2017-09-29T06:16:06.104Z,35.35
2017-09-29T06:18:33.611Z,34.53
2017-09-29T06:21:01.132Z,28.38
2017-09-29T06:23:28.657Z,28.25
2017-09-29T06:25:56.194Z,32.97
2017-09-29T06:28:23.712Z,31.02
2017-09-29T06:30:51.229Z,26.25
2017-09-29T06:33:18.758Z,29.12
2017-09-29T06:35:46.281Z,57.08
2017-09-29T06:38:13.795Z,29.73
2017-09-29T06:40:41.442Z,26.95
2017-09-29T06:43:08.952Z,28.33
2017-09-29T06:45:36.627Z,30.75
2017-09-29T06:48:04.902Z,27.75
2017-09-29T06:50:33.174Z,28.73
2017-09-29T06:53:00.703Z,30.75
2017-09-29T06:55:28.214Z,39.08
2017-09-29T06:57:55.735Z,28.80
2017-09-29T07:00:23.281Z,30.62
2017-09-29T07:02:50.794Z,30.33
2017-09-29T07:05:18.315Z,29.10
2017-09-29T07:07:45.824Z,31.90
2017-09-29T07:10:13.381Z,30.48
2017-09-29T07:12:41.010Z,30.37
2017-09-29T07:15:08.540Z,28.58
2017-09-29T07:17:36.049Z,28.90
2017-09-29T07:20:04.352Z,29.45
2017-09-29T07:22:31.852Z,29.45
2017-09-29T07:25:04.640Z,29.98
2017-09-29T07:27:34.847Z,26.77
2017-09-29T07:30:06.140Z,31.23
2017-09-29T07:32:33.722Z,28.27
2017-09-29T07:35:01.253Z,24.73
2017-09-29T07:37:28.769Z,23.85
2017-09-29T07:39:56.281Z,30.52
2017-09-29T07:42:24.764Z,27.50
2017-09-29T07:44:55.957Z,31.55
2017-09-29T07:47:23.568Z,24.48
2017-09-29T07:49:51.848Z,25.15
2017-09-29T07:52:20.137Z,24.92
2017-09-29T07:54:47.683Z,23.87
2017-09-29T07:57:15.190Z,25.77
2017-09-29T07:59:42.689Z,27.05
2017-09-29T08:02:10.985Z,24.33
2017-09-29T08:04:38.519Z,23.95
2017-09-29T08:07:06.815Z,23.95
2017-09-29T08:09:34.328Z,23.90
2017-09-29T08:12:01.846Z,21.90
2017-09-29T08:14:29.403Z,23.73
2017-09-29T08:16:56.903Z,26.05
2017-09-29T08:19:24.418Z,22.50
2017-09-29T08:21:51.994Z,27.95
2017-09-29T08:24:19.528Z,22.23
2017-09-29T08:26:47.812Z,28.95
2017-09-29T08:29:15.346Z,24.05
2017-09-29T08:31:42.858Z,25.02
2017-09-29T08:34:10.365Z,23.00
2017-09-29T08:36:38.659Z,25.33
2017-09-29T08:39:06.918Z,21.50
2017-09-29T08:41:35.200Z,21.77
2017-09-29T08:44:03.480Z,30.33
2017-09-29T08:46:31.756Z,23.15
2017-09-29T08:49:00.058Z,20.40
2017-09-29T08:51:27.579Z,21.65
2017-09-29T08:53:55.081Z,23.58
2017-09-29T08:56:22.603Z,20.62
2017-09-29T08:58:50.181Z,20.60
2017-09-29T09:01:17.694Z,20.70
2017-09-29T09:03:45.232Z,21.15
2017-09-29T09:06:12.742Z,20.70
2017-09-29T09:08:40.396Z,20.83
2017-09-29T09:11:07.908Z,19.75
2017-09-29T09:13:35.445Z,22.67
2017-09-29T09:16:03.015Z,20.75
2017-09-29T09:18:30.531Z,21.45
2017-09-29T09:20:58.146Z,22.08
2017-09-29T09:23:25.658Z,26.20
2017-09-29T09:25:53.189Z,21.40
2017-09-29T09:28:20.705Z,19.98
2017-09-29T09:30:48.223Z,21.08
2017-09-29T09:33:15.735Z,20.08
2017-09-29T09:35:43.286Z,21.45
2017-09-29T09:38:10.816Z,21.25
2017-09-29T09:40:38.333Z,20.27
2017-09-29T09:43:05.870Z,18.10
2017-09-29T09:45:33.392Z,19.65
2017-09-29T09:48:00.896Z,19.92
2017-09-29T09:50:28.436Z,19.45
2017-09-29T09:52:56.028Z,24.27
2017-09-29T09:55:23.532Z,19.62
2017-09-29T09:57:51.064Z,20.08
2017-09-29T10:00:18.577Z,19.77
2017-09-29T10:02:46.109Z,22.80
2017-09-29T10:05:13.627Z,18.95
2017-09-29T10:07:41.142Z,19.20
2017-09-29T10:10:09.457Z,18.87
2017-09-29T10:12:38.681Z,19.45
2017-09-29T10:15:06.190Z,17.87
2017-09-29T10:17:33.715Z,17.33
2017-09-29T10:20:01.237Z,17.30
2017-09-29T10:22:28.753Z,16.85
2017-09-29T10:24:57.053Z,17.58
2017-09-29T10:27:24.576Z,13.95
2017-09-29T10:29:52.088Z,14.85
2017-09-29T10:32:19.596Z,13.30
2017-09-29T10:34:47.128Z,15.18
2017-09-29T10:37:14.649Z,15.05
2017-09-29T10:39:42.172Z,14.60
2017-09-29T10:42:09.994Z,16.60
2017-09-29T10:44:37.518Z,13.70
2017-09-29T10:47:05.778Z,15.97
2017-09-29T10:49:34.076Z,16.27
2017-09-29T10:52:01.592Z,21.73
2017-09-29T10:54:29.090Z,13.67
2017-09-29T10:56:56.606Z,12.20
2017-09-29T10:59:24.135Z,13.30
2017-09-29T11:01:51.717Z,12.47
2017-09-29T11:04:19.223Z,14.07
2017-09-29T11:06:47.520Z,13.93
2017-09-29T11:09:15.055Z,13.97
2017-09-29T11:11:43.332Z,12.87
2017-09-29T11:14:10.854Z,12.93
2017-09-29T11:16:38.389Z,12.63
2017-09-29T11:19:05.916Z,13.00
2017-09-29T11:21:34.194Z,14.70
2017-09-29T11:24:01.717Z,16.70
2017-09-29T11:26:29.226Z,14.73
2017-09-29T11:28:56.761Z,13.10
2017-09-29T11:31:24.271Z,14.10
2017-09-29T11:33:51.785Z,17.53
2017-09-29T11:36:20.068Z,12.80
2017-09-29T11:38:48.342Z,13.37
2017-09-29T11:41:16.625Z,12.77
2017-09-29T11:43:44.898Z,13.50
2017-09-29T11:46:13.174Z,12.40
2017-09-29T11:48:41.548Z,12.37
2017-09-29T11:51:09.097Z,13.93
2017-09-29T11:53:36.614Z,12.23
2017-09-29T11:56:04.120Z,12.90
2017-09-29T11:58:31.696Z,12.13
2017-09-29T12:01:00.052Z,13.00
2017-09-29T12:03:27.588Z,13.30
2017-09-29T12:05:55.112Z,15.73
2017-09-29T12:08:22.624Z,11.60
2017-09-29T12:10:50.138Z,12.33
2017-09-29T12:13:17.654Z,14.77
2017-09-29T12:15:45.165Z,11.93
2017-09-29T12:18:12.683Z,13.00
2017-09-29T12:20:40.202Z,14.43
2017-09-29T12:23:07.725Z,13.00
2017-09-29T12:25:35.237Z,14.20
2017-09-29T12:28:02.739Z,13.30
2017-09-29T12:30:30.262Z,15.53
2017-09-29T12:32:57.776Z,14.63
2017-09-29T12:35:25.294Z,15.03
2017-09-29T12:37:52.808Z,12.93
2017-09-29T12:40:20.321Z,15.18
2017-09-29T12:42:48.693Z,14.00
2017-09-29T12:45:17.086Z,15.50
2017-09-29T12:47:44.630Z,14.77
2017-09-29T12:50:12.151Z,13.88
2017-09-29T12:52:39.646Z,15.85
2017-09-29T12:55:07.249Z,14.80
2017-09-29T12:57:34.787Z,16.15
2017-09-29T13:00:03.071Z,15.60
2017-09-29T13:02:30.618Z,16.50
2017-09-29T13:04:58.483Z,16.17
2017-09-29T13:07:26.001Z,16.30
2017-09-29T13:09:53.512Z,14.18
2017-09-29T13:12:21.058Z,14.90
2017-09-29T13:14:48.578Z,18.02
2017-09-29T13:17:16.224Z,15.55
2017-09-29T13:19:44.051Z,15.10
2017-09-29T13:22:11.548Z,15.43
2017-09-29T13:24:39.071Z,17.15
2017-09-29T13:27:07.397Z,19.10
2017-09-29T13:29:34.904Z,16.20
2017-09-29T13:32:03.217Z,17.42
2017-09-29T13:34:30.751Z,18.02
2017-09-29T13:36:59.016Z,14.15
2017-09-29T13:39:27.286Z,16.02
2017-09-29T13:41:55.590Z,15.55
2017-09-29T13:44:23.095Z,16.35
2017-09-29T13:46:50.751Z,14.93
2017-09-29T13:49:18.279Z,16.52
2017-09-29T13:51:45.770Z,16.65
2017-09-29T13:54:13.304Z,13.60
2017-09-29T13:56:40.826Z,16.58
2017-09-29T13:59:08.364Z,17.15
2017-09-29T14:01:35.943Z,19.73
2017-09-29T14:04:04.262Z,18.70
2017-09-29T14:06:31.794Z,15.07
2017-09-29T14:09:00.071Z,21.33
2017-09-29T14:11:28.348Z,15.48
2017-09-29T14:13:56.631Z,15.95
2017-09-29T14:16:24.148Z,15.30
2017-09-29T14:18:51.678Z,13.70
2017-09-29T14:21:19.184Z,14.13
2017-09-29T14:23:46.706Z,14.05
2017-09-29T14:26:14.212Z,15.75
2017-09-29T14:28:41.715Z,14.68
2017-09-29T14:31:09.219Z,13.30
2017-09-29T14:33:36.728Z,13.45
2017-09-29T14:36:04.265Z,13.82
2017-09-29T14:38:31.802Z,14.10
2017-09-29T14:41:00.084Z,12.30
2017-09-29T14:43:28.370Z,12.70
2017-09-29T14:45:56.647Z,13.82
2017-09-29T14:48:24.944Z,13.85
2017-09-29T14:50:52.470Z,14.70
2017-09-29T14:53:19.983Z,13.62
2017-09-29T14:55:47.526Z,18.83
2017-09-29T14:58:15.092Z,14.32
2017-09-29T15:00:42.617Z,15.68
2017-09-29T15:03:10.891Z,16.67
2017-09-29T15:05:39.173Z,16.62
2017-09-29T15:08:07.452Z,17.75
2017-09-29T15:10:35.738Z,15.77
2017-09-29T15:13:03.280Z,16.90
2017-09-29T15:15:30.832Z,15.98
2017-09-29T15:17:58.386Z,16.02
2017-09-29T15:20:25.983Z,17.48
2017-09-29T15:22:53.528Z,19.90
2017-09-29T15:25:21.049Z,17.08
2017-09-29T15:27:48.594Z,20.60
2017-09-29T15:30:16.119Z,16.80
2017-09-29T15:32:43.650Z,18.70
2017-09-29T15:35:11.258Z,19.48
2017-09-29T15:37:39.144Z,19.67
2017-09-29T15:40:06.964Z,18.62
2017-09-29T15:42:35.238Z,16.40
2017-09-29T15:45:02.789Z,17.50
2017-09-29T15:47:31.059Z,16.65
2017-09-29T15:49:58.567Z,19.37
2017-09-29T15:52:26.090Z,16.33
2017-09-29T15:54:53.613Z,17.98
2017-09-29T15:57:21.119Z,18.80
2017-09-29T15:59:49.498Z,18.42
2017-09-29T16:02:17.020Z,18.70
2017-09-29T16:04:44.556Z,18.55
2017-09-29T16:07:12.071Z,19.42
2017-09-29T16:09:39.570Z,19.95
2017-09-29T16:12:07.088Z,19.08
2017-09-29T16:14:35.374Z,19.65
2017-09-29T16:17:03.656Z,18.33
2017-09-29T16:19:31.170Z,21.12
2017-09-29T16:21:58.707Z,17.15
2017-09-29T16:24:26.338Z,20.88
2017-09-29T16:26:53.893Z,17.95
2017-09-29T16:29:21.424Z,19.15
2017-09-29T16:31:48.951Z,19.12
2017-09-29T16:34:16.490Z,21.30
2017-09-29T16:36:44.032Z,22.08
2017-09-29T16:39:11.551Z,21.10
2017-09-29T16:41:39.097Z,21.33
2017-09-29T16:44:06.615Z,20.48
2017-09-29T16:46:34.133Z,22.20
2017-09-29T16:49:01.640Z,22.95
2017-09-29T16:51:29.209Z,22.27
2017-09-29T16:53:57.078Z,22.85
2017-09-29T16:56:24.594Z,22.17
2017-09-29T16:58:52.884Z,20.98
2017-09-29T17:01:21.287Z,23.73
2017-09-29T17:03:48.817Z,22.87
2017-09-29T17:06:17.129Z,24.75
2017-09-29T17:08:44.689Z,23.52
2017-09-29T17:11:12.207Z,23.15
2017-09-29T17:13:40.525Z,23.25
2017-09-29T17:16:08.074Z,23.52
2017-09-29T17:18:35.605Z,25.50
2017-09-29T17:21:03.207Z,27.50
2017-09-29T17:23:30.728Z,23.95
2017-09-29T17:25:59.042Z,25.75
2017-09-29T17:28:26.551Z,24.75
2017-09-29T17:30:54.469Z,30.10
2017-09-29T17:33:21.991Z,27.33
2017-09-29T17:35:50.291Z,24.83
2017-09-29T17:38:17.805Z,25.55
2017-09-29T17:40:45.524Z,26.10
2017-09-29T17:43:13.027Z,26.25
2017-09-29T17:45:40.549Z,26.23
2017-09-29T17:48:08.055Z,26.33
2017-09-29T17:50:35.568Z,27.02
2017-09-29T17:53:03.096Z,24.67
2017-09-29T17:55:32.655Z,25.55
2017-09-29T17:58:00.191Z,26.10
2017-09-29T18:00:27.725Z,24.60
2017-09-29T18:02:56.058Z,23.98
2017-09-29T18:05:23.567Z,23.60
2017-09-29T18:07:51.087Z,23.98
2017-09-29T18:10:18.649Z,23.02
2017-09-29T18:12:46.157Z,45.65
2017-09-29T18:15:13.669Z,41.85
2017-09-29T18:17:41.191Z,31.25
2017-09-29T18:20:08.725Z,26.62
2017-09-29T18:22:36.236Z,32.15
2017-09-29T18:25:03.759Z,34.95
2017-09-29T18:27:31.279Z,21.83
2017-09-29T18:29:58.825Z,23.98
2017-09-29T18:32:26.360Z,24.95
2017-09-29T18:34:53.983Z,23.77
2017-09-29T18:37:22.277Z,22.65
2017-09-29T18:39:49.793Z,21.45
2017-09-29T18:42:17.319Z,22.67
2017-09-29T18:44:50.283Z,22.58
2017-09-29T18:47:33.595Z,26.08
2017-09-29T18:50:01.894Z,20.45
2017-09-29T18:52:29.484Z,21.58
2017-09-29T18:54:57.296Z,20.65
2017-09-29T18:57:25.557Z,18.70
2017-09-29T18:59:53.071Z,20.95
2017-09-29T19:02:20.611Z,18.80
2017-09-29T19:04:48.152Z,24.23
2017-09-29T19:07:15.727Z,23.08
2017-09-29T19:09:43.253Z,22.73
2017-09-29T19:12:10.778Z,22.87
2017-09-29T19:14:38.334Z,24.00
2017-09-29T19:17:05.846Z,20.95
2017-09-29T19:19:33.364Z,18.90
2017-09-29T19:22:00.857Z,22.83
2017-09-29T19:24:29.170Z,18.50
2017-09-29T19:26:56.696Z,18.05
2017-09-29T19:29:24.217Z,21.65
2017-09-29T19:31:51.743Z,29.10
2017-09-29T19:34:19.268Z,20.23
2017-09-29T19:36:47.160Z,21.87
2017-09-29T19:39:14.691Z,17.87
2017-09-29T19:41:42.249Z,21.83
2017-09-29T19:44:09.751Z,25.10
2017-09-29T19:46:37.275Z,19.98
2017-09-29T19:49:05.601Z,19.20
2017-09-29T19:51:33.129Z,17.27
2017-09-29T19:54:00.646Z,19.98
2017-09-29T19:56:28.152Z,16.77
2017-09-29T19:58:56.459Z,19.40
2017-09-29T20:01:23.975Z,20.00
2017-09-29T20:03:51.507Z,18.00
2017-09-29T20:06:19.019Z,19.00
2017-09-29T20:08:46.591Z,19.50
2017-09-29T20:11:14.129Z,17.05
2017-09-29T20:13:42.804Z,26.12
2017-09-29T20:16:11.116Z,19.77
2017-09-29T20:18:38.636Z,17.87
2017-09-29T20:21:06.212Z,25.40
2017-09-29T20:23:33.732Z,27.02
2017-09-29T20:26:01.420Z,19.83
2017-09-29T20:28:28.952Z,19.48
2017-09-29T20:30:56.527Z,17.87
2017-09-29T20:33:24.807Z,18.37
2017-09-29T20:35:52.361Z,17.65
2017-09-29T20:38:19.911Z,18.98
2017-09-29T20:40:47.473Z,24.85
2017-09-29T20:43:16.169Z,17.77
2017-09-29T20:45:43.694Z,16.15
2017-09-29T20:48:11.209Z,17.40
2017-09-29T20:50:38.832Z,21.65
2017-09-29T20:53:06.402Z,18.70
2017-09-29T20:55:33.965Z,18.77
2017-09-29T20:58:01.529Z,21.37
2017-09-29T21:00:29.058Z,21.30
2017-09-29T21:02:56.579Z,21.65
2017-09-29T21:05:24.146Z,22.80
2017-09-29T21:07:51.845Z,23.05
2017-09-29T21:10:19.403Z,20.65
2017-09-29T21:12:46.924Z,18.20
2017-09-29T21:15:14.532Z,17.58
2017-09-29T21:17:42.101Z,16.05
2017-09-29T21:20:09.616Z,16.92
2017-09-29T21:22:37.123Z,17.85
2017-09-29T21:25:04.798Z,17.23
2017-09-29T21:27:33.225Z,26.52
2017-09-29T21:30:00.731Z,22.80
2017-09-29T21:32:28.273Z,21.12
2017-09-29T21:34:55.875Z,21.20
2017-09-29T21:37:24.231Z,27.85
2017-09-29T21:39:51.794Z,19.10
2017-09-29T21:42:19.297Z,19.52
2017-09-29T21:44:46.901Z,22.92
2017-09-29T21:47:15.242Z,34.33
2017-09-29T21:49:42.755Z,27.48
2017-09-29T21:52:10.306Z,17.73
2017-09-29T21:54:37.843Z,19.42
2017-09-29T21:57:05.386Z,18.17
2017-09-29T21:59:32.907Z,20.67
2017-09-29T22:02:01.247Z,20.20
2017-09-29T22:04:28.824Z,19.90
2017-09-29T22:06:56.550Z,17.42
2017-09-29T22:09:24.135Z,18.35
2017-09-29T22:11:51.641Z,17.42
2017-09-29T22:14:19.217Z,19.20
2017-09-29T22:16:46.761Z,18.67
2017-09-29T22:19:14.331Z,21.73
2017-09-29T22:21:41.859Z,20.50
2017-09-29T22:24:09.382Z,19.65
2017-09-29T22:26:36.945Z,17.15
2017-09-29T22:29:04.526Z,19.23
2017-09-29T22:31:32.157Z,19.80
2017-09-29T22:33:59.725Z,18.75
2017-09-29T22:36:27.284Z,18.77
2017-09-29T22:38:54.951Z,18.00
2017-09-29T22:41:22.481Z,18.37
2017-09-29T22:43:50.020Z,28.55
2017-09-29T22:46:18.475Z,30.30
2017-09-29T22:48:46.367Z,20.50
2017-09-29T22:51:13.924Z,18.60
2017-09-29T22:53:41.443Z,17.25
2017-09-29T22:56:09.062Z,19.35
2017-09-29T22:58:36.632Z,18.50
2017-09-29T23:01:04.152Z,18.67
2017-09-29T23:03:31.786Z,21.73
2017-09-29T23:05:59.372Z,20.37
2017-09-29T23:08:27.048Z,29.37
2017-09-29T23:10:54.604Z,20.85
2017-09-29T23:13:23.023Z,22.27
2017-09-29T23:15:50.541Z,20.90
2017-09-29T23:18:18.830Z,16.87
2017-09-29T23:20:47.112Z,19.00
2017-09-29T23:23:14.627Z,19.70
2017-09-29T23:25:42.163Z,18.12
2017-09-29T23:28:09.721Z,21.45
2017-09-29T23:30:37.273Z,19.98
2017-09-29T23:33:04.799Z,19.30
2017-09-29T23:35:32.324Z,20.37
2017-09-29T23:37:59.851Z,18.98
2017-09-29T23:40:27.357Z,22.35
2017-09-29T23:42:54.903Z,19.02
2017-09-29T23:45:23.208Z,18.02
2017-09-29T23:47:51.485Z,18.75
2017-09-29T23:50:20.550Z,20.92
2017-09-29T23:52:49.008Z,21.25
2017-09-29T23:55:16.517Z,23.05
2017-09-29T23:57:44.049Z,21.60
